createdAt,value
2022-08-10T00:00:44.769Z,81.94
2022-08-10T00:03:11.551Z,82.05
2022-08-10T00:05:43.755Z,82.40
2022-08-10T00:08:24.125Z,82.21
2022-08-10T00:10:53.542Z,82.11
2022-08-10T00:13:20.470Z,82.14
2022-08-10T00:15:54.045Z,83.04
2022-08-10T00:18:35.249Z,83.82
2022-08-10T00:21:08.188Z,83.46
2022-08-10T00:23:36.071Z,83.32
2022-08-10T00:26:03.581Z,83.09
2022-08-10T00:28:30.487Z,83.61
2022-08-10T00:30:57.358Z,83.93
2022-08-10T00:33:24.156Z,84.29
2022-08-10T00:35:51.053Z,84.18
2022-08-10T00:38:17.859Z,84.68
2022-08-10T00:40:44.494Z,85.09
2022-08-10T00:43:11.244Z,85.62
2022-08-10T00:45:38.168Z,84.47
2022-08-10T00:48:05.342Z,85.01
2022-08-10T00:50:32.187Z,84.70
2022-08-10T00:52:59.220Z,85.18
2022-08-10T00:55:26.329Z,85.09
2022-08-10T00:57:54.919Z,84.56
2022-08-10T01:00:23.925Z,85.68
2022-08-10T01:02:51.228Z,86.42
2022-08-10T01:05:20.181Z,86.14
2022-08-10T01:07:53.508Z,86.55
2022-08-10T01:10:32.511Z,86.75
2022-08-10T01:13:06.801Z,87.98
2022-08-10T01:15:45.686Z,88.11
2022-08-10T01:18:21.637Z,86.65
2022-08-10T01:20:54.355Z,86.63
2022-08-10T01:23:20.900Z,86.90
2022-08-10T01:26:10.352Z,87.30
2022-08-10T01:28:48.724Z,87.65
2022-08-10T01:31:21.142Z,87.63
2022-08-10T01:33:59.050Z,88.54
2022-08-10T01:36:36.519Z,88.27
2022-08-10T01:39:05.301Z,87.53
2022-08-10T01:41:46.880Z,88.17
2022-08-10T01:44:20.025Z,87.92
2022-08-10T01:46:56.870Z,87.68
2022-08-10T01:49:25.734Z,87.90
2022-08-10T01:51:54.920Z,88.71
2022-08-10T01:54:25.791Z,88.78
2022-08-10T01:56:57.180Z,88.68
2022-08-10T01:59:31.347Z,88.64
2022-08-10T02:02:08.021Z,88.90
2022-08-10T02:04:38.652Z,90.05
2022-08-10T02:07:08.532Z,89.54
2022-08-10T02:09:40.292Z,89.22
2022-08-10T02:12:10.901Z,90.09
2022-08-10T02:14:52.499Z,90.46
2022-08-10T02:18:00.282Z,89.74
2022-08-10T02:20:19.312Z,90.18
2022-08-10T02:23:08.704Z,89.76
2022-08-10T02:25:41.910Z,90.96
2022-08-10T02:28:29.610Z,91.28
2022-08-10T02:31:00.728Z,91.21
2022-08-10T02:33:29.243Z,91.47
2022-08-10T02:36:00.513Z,90.89
2022-08-10T02:38:59.627Z,92.26
2022-08-10T02:45:01.996Z,92.39
2022-08-10T02:45:27.432Z,92.32
2022-08-10T02:47:52.138Z,92.09
2022-08-10T02:50:33.636Z,92.18
2022-08-10T02:53:05.477Z,92.57
2022-08-10T02:55:40.882Z,92.57
2022-08-10T02:58:16.937Z,92.51
2022-08-10T03:00:53.485Z,93.87
2022-08-10T03:03:42.629Z,93.52
2022-08-10T03:06:15.746Z,93.12
2022-08-10T03:08:45.282Z,93.88
2022-08-10T03:12:36.755Z,93.88
2022-08-10T03:14:13.642Z,94.18
2022-08-10T03:16:42.115Z,93.92
2022-08-10T03:20:33.462Z,94.02
2022-08-10T03:21:59.130Z,94.47
2022-08-10T03:24:32.717Z,94.65
2022-08-10T03:27:01.484Z,94.93
2022-08-10T03:29:29.066Z,95.51
2022-08-10T03:31:58.205Z,97.15
2022-08-10T03:34:33.360Z,95.96
2022-08-10T03:37:01.008Z,96.25
2022-08-10T03:39:28.593Z,96.85
2022-08-10T03:42:00.279Z,96.99
2022-08-10T03:44:32.644Z,97.22
2022-08-10T03:47:02.107Z,97.74
2022-08-10T03:49:31.179Z,97.50
2022-08-10T03:51:59.102Z,97.53
2022-08-10T03:54:26.221Z,97.83
2022-08-10T03:56:53.295Z,98.05
2022-08-10T03:59:20.756Z,97.44
2022-08-10T04:02:45.763Z,98.07
2022-08-10T04:04:37.105Z,97.28
2022-08-10T04:07:05.044Z,97.86
2022-08-10T04:09:53.605Z,98.99
2022-08-10T04:12:22.192Z,98.73
2022-08-10T04:14:50.394Z,99.17
2022-08-10T04:18:01.236Z,98.42
2022-08-10T04:20:17.697Z,98.50
2022-08-10T04:22:52.124Z,98.98
2022-08-10T04:25:21.191Z,99.06
2022-08-10T04:27:49.711Z,98.44
2022-08-10T04:30:17.058Z,98.88
2022-08-10T04:32:48.575Z,99.58
2022-08-10T04:35:18.826Z,100.00
2022-08-10T04:37:48.324Z,100.00
2022-08-10T04:40:28.496Z,100.00
2022-08-10T04:43:11.739Z,100.00
2022-08-10T04:45:48.434Z,100.00
2022-08-10T04:48:39.955Z,100.00
2022-08-10T04:51:17.242Z,100.00
2022-08-10T04:54:05.024Z,99.99
2022-08-10T04:56:33.738Z,99.89
2022-08-10T04:59:01.030Z,99.77
2022-08-10T05:02:12.133Z,99.38
2022-08-10T05:04:33.849Z,99.61
2022-08-10T05:07:04.364Z,99.09
2022-08-10T05:09:31.035Z,98.77
2022-08-10T05:11:57.647Z,92.31
2022-08-10T05:14:24.820Z,88.53
2022-08-10T05:16:51.485Z,86.15
2022-08-10T05:19:21.155Z,85.58
2022-08-10T05:22:05.291Z,82.21
2022-08-10T05:24:32.255Z,80.91
2022-08-10T05:27:09.414Z,79.52
2022-08-10T05:29:37.531Z,78.25
2022-08-10T05:32:04.709Z,77.02
2022-08-10T05:34:31.611Z,75.12
2022-08-10T05:36:58.661Z,74.96
2022-08-10T05:39:31.965Z,74.12
2022-08-10T05:42:01.853Z,73.95
2022-08-10T05:44:29.999Z,72.77
2022-08-10T05:46:56.950Z,71.04
2022-08-10T05:49:24.642Z,68.98
2022-08-10T05:51:51.915Z,68.95
2022-08-10T05:54:19.599Z,67.83
2022-08-10T05:56:53.423Z,69.02
2022-08-10T06:00:10.758Z,68.59
2022-08-10T06:02:41.137Z,69.16
2022-08-10T06:05:00.493Z,68.08
2022-08-10T06:07:30.234Z,66.36
2022-08-10T06:10:00.568Z,66.94
2022-08-10T06:12:30.942Z,66.55
2022-08-10T06:15:05.273Z,65.38
2022-08-10T06:17:33.027Z,64.11
2022-08-10T06:20:00.912Z,63.66
2022-08-10T06:22:33.407Z,65.27
2022-08-10T06:25:37.719Z,64.78
2022-08-10T06:27:54.435Z,63.97
2022-08-10T06:30:23.225Z,62.32
2022-08-10T06:32:53.120Z,62.63
2022-08-10T06:35:20.284Z,63.46
2022-08-10T06:37:51.640Z,61.80
2022-08-10T06:40:20.310Z,60.49
2022-08-10T06:42:50.133Z,60.81
2022-08-10T06:45:21.382Z,61.98
2022-08-10T06:48:02.175Z,61.01
2022-08-10T06:50:55.918Z,62.48
2022-08-10T06:53:53.846Z,62.18
2022-08-10T06:56:37.845Z,60.80
2022-08-10T06:59:41.757Z,59.83
2022-08-10T07:02:12.099Z,59.34
2022-08-10T07:04:48.224Z,58.20
2022-08-10T07:07:19.457Z,58.54
2022-08-10T07:09:47.891Z,59.37
2022-08-10T07:12:16.090Z,59.24
2022-08-10T07:14:45.424Z,58.63
2022-08-10T07:17:20.503Z,58.13
2022-08-10T07:19:52.186Z,57.03
2022-08-10T07:23:08.669Z,56.28
2022-08-10T07:25:28.580Z,56.49
2022-08-10T07:27:59.701Z,56.81
2022-08-10T07:30:33.168Z,56.85
2022-08-10T07:33:01.785Z,56.64
2022-08-10T07:35:33.414Z,56.45
2022-08-10T07:38:06.484Z,55.31
2022-08-10T07:40:33.985Z,54.23
2022-08-10T07:43:02.614Z,54.47
2022-08-10T07:45:33.548Z,52.89
2022-08-10T07:48:26.024Z,52.48
2022-08-10T07:50:57.916Z,52.53
2022-08-10T07:53:27.802Z,52.18
2022-08-10T07:56:04.867Z,52.07
2022-08-10T07:58:48.202Z,51.42
2022-08-10T08:01:24.140Z,50.32
2022-08-10T08:04:05.347Z,51.11
2022-08-10T08:06:40.185Z,50.49
2022-08-10T08:09:07.290Z,49.88
2022-08-10T08:11:36.583Z,49.29
2022-08-10T08:14:06.037Z,48.01
2022-08-10T08:16:35.492Z,48.06
2022-08-10T08:19:26.613Z,49.01
2022-08-10T08:24:10.407Z,49.15
2022-08-10T08:24:39.950Z,47.91
2022-08-10T08:27:07.917Z,47.72
2022-08-10T08:29:37.514Z,48.01
2022-08-10T08:32:05.431Z,46.31
2022-08-10T08:34:34.272Z,47.34
2022-08-10T08:37:03.616Z,47.46
2022-08-10T08:39:33.251Z,48.29
2022-08-10T08:42:26.047Z,47.69
2022-08-10T08:45:31.745Z,47.68
2022-08-10T08:48:06.432Z,48.29
2022-08-10T08:50:36.624Z,49.03
2022-08-10T08:54:02.025Z,49.75
2022-08-10T08:56:46.909Z,50.20
2022-08-10T08:59:33.353Z,51.41
2022-08-10T09:02:36.061Z,52.73
2022-08-10T09:05:30.326Z,52.05
2022-08-10T09:08:15.900Z,49.82
2022-08-10T09:10:59.100Z,51.32
2022-08-10T09:13:34.631Z,52.61
2022-08-10T09:16:29.587Z,52.94
2022-08-10T09:19:36.424Z,51.58
2022-08-10T09:22:17.791Z,51.47
2022-08-10T09:25:07.604Z,51.46
2022-08-10T09:27:43.532Z,51.54
2022-08-10T09:30:13.384Z,50.21
2022-08-10T09:36:16.362Z,51.10
2022-08-10T09:36:24.066Z,51.34
2022-08-10T09:38:54.699Z,50.83
2022-08-10T09:41:39.951Z,50.82
2022-08-10T09:44:57.855Z,50.23
2022-08-10T09:48:00.853Z,49.91
2022-08-10T09:50:59.274Z,49.66
2022-08-10T09:53:56.275Z,49.08
2022-08-10T09:56:41.007Z,48.22
2022-08-10T10:00:01.446Z,46.79
2022-08-10T10:03:01.226Z,46.63
2022-08-10T10:05:39.924Z,45.65
2022-08-10T10:08:23.635Z,46.81
2022-08-10T10:11:04.002Z,45.85
2022-08-10T10:14:03.831Z,44.42
2022-08-10T10:16:52.566Z,44.02
2022-08-10T10:19:31.888Z,43.68
2022-08-10T10:22:13.057Z,42.39
2022-08-10T10:24:47.792Z,43.93
2022-08-10T10:27:34.346Z,41.62
2022-08-10T10:30:04.661Z,41.46
2022-08-10T10:32:37.117Z,41.46
2022-08-10T10:35:18.681Z,41.98
2022-08-10T10:38:02.744Z,41.45
2022-08-10T10:41:14.098Z,40.78
2022-08-10T10:44:08.776Z,40.30
2022-08-10T10:46:56.993Z,40.14
2022-08-10T10:49:43.464Z,40.03
2022-08-10T10:52:39.048Z,39.27
2022-08-10T10:55:24.493Z,39.12
2022-08-10T10:58:25.340Z,39.72
2022-08-10T11:00:58.120Z,40.06
2022-08-10T11:03:36.535Z,39.60
2022-08-10T11:06:21.097Z,39.23
2022-08-10T11:09:00.093Z,39.20
2022-08-10T11:12:01.372Z,39.42
2022-08-10T11:14:35.100Z,39.40
2022-08-10T11:17:27.077Z,39.39
2022-08-10T11:20:18.997Z,38.43
2022-08-10T11:23:11.948Z,39.03
2022-08-10T11:25:46.706Z,39.05
2022-08-10T11:28:21.943Z,38.62
2022-08-10T11:30:54.938Z,39.17
2022-08-10T11:34:11.257Z,38.07
2022-08-10T11:36:59.670Z,37.89
2022-08-10T11:40:09.287Z,37.81
2022-08-10T11:42:55.011Z,37.93
2022-08-10T11:45:31.967Z,38.42
2022-08-10T11:48:11.735Z,37.83
2022-08-10T11:51:01.437Z,37.47
2022-08-10T11:53:41.355Z,37.63
2022-08-10T11:56:13.040Z,37.50
2022-08-10T11:59:01.766Z,36.92
2022-08-10T12:01:47.396Z,36.82
2022-08-10T12:04:16.154Z,36.67
2022-08-10T12:06:55.950Z,36.80
2022-08-10T12:10:04.172Z,37.20
2022-08-10T12:12:13.120Z,36.14
2022-08-10T12:14:50.458Z,35.13
2022-08-10T12:17:24.263Z,35.41
2022-08-10T12:20:16.269Z,35.65
2022-08-10T12:22:49.199Z,35.76
2022-08-10T12:25:56.227Z,35.76
2022-08-10T12:28:20.302Z,33.54
2022-08-10T12:30:52.393Z,34.23
2022-08-10T12:33:31.905Z,34.42
2022-08-10T12:36:33.510Z,34.82
2022-08-10T12:39:15.338Z,34.82
2022-08-10T12:42:01.754Z,35.27
2022-08-10T12:44:42.524Z,34.26
2022-08-10T12:47:47.007Z,33.78
2022-08-10T12:50:33.193Z,32.78
2022-08-10T12:53:06.469Z,32.96
2022-08-10T12:55:37.376Z,33.14
2022-08-10T12:58:57.355Z,34.11
2022-08-10T13:01:15.717Z,34.04
2022-08-10T13:04:22.834Z,33.92
2022-08-10T13:06:46.115Z,32.89
2022-08-10T13:09:22.398Z,32.14
2022-08-10T13:12:36.201Z,32.62
2022-08-10T13:14:54.346Z,33.03
2022-08-10T13:17:39.032Z,33.64
2022-08-10T13:20:29.044Z,33.73
2022-08-10T13:22:59.475Z,33.19
2022-08-10T13:25:31.931Z,32.33
2022-08-10T13:28:34.767Z,32.39
2022-08-10T13:30:50.972Z,32.27
2022-08-10T13:34:41.298Z,32.34
2022-08-10T13:36:07.678Z,32.35
2022-08-10T13:38:35.493Z,32.47
2022-08-10T13:41:03.355Z,32.83
2022-08-10T13:43:30.120Z,33.07
2022-08-10T13:45:58.124Z,33.77
2022-08-10T13:48:28.049Z,33.31
2022-08-10T13:50:58.670Z,32.51
2022-08-10T13:53:31.593Z,32.31
2022-08-10T13:56:01.600Z,32.30
2022-08-10T13:58:31.741Z,31.45
2022-08-10T14:01:01.742Z,32.48
2022-08-10T14:03:36.097Z,32.11
2022-08-10T14:06:05.172Z,31.38
2022-08-10T14:08:33.005Z,31.09
2022-08-10T14:11:11.352Z,30.98
2022-08-10T14:13:45.715Z,31.70
2022-08-10T14:16:13.873Z,31.89
2022-08-10T14:18:44.670Z,31.84
2022-08-10T14:21:12.989Z,31.43
2022-08-10T14:23:41.273Z,31.00
2022-08-10T14:26:09.482Z,31.78
2022-08-10T14:28:41.531Z,31.23
2022-08-10T14:31:12.071Z,31.08
2022-08-10T14:33:44.662Z,31.97
2022-08-10T14:36:23.184Z,31.93
2022-08-10T14:38:54.068Z,32.63
2022-08-10T14:42:04.223Z,32.42
2022-08-10T14:44:17.028Z,32.74
2022-08-10T14:46:51.596Z,32.71
2022-08-10T14:49:26.546Z,32.77
2022-08-10T14:51:59.770Z,32.68
2022-08-10T14:54:29.930Z,31.97
2022-08-10T14:57:11.230Z,32.13
2022-08-10T15:00:24.559Z,32.08
2022-08-10T15:02:38.152Z,32.31
2022-08-10T15:05:09.827Z,32.88
2022-08-10T15:07:38.358Z,32.29
2022-08-10T15:10:10.990Z,32.26
2022-08-10T15:12:40.288Z,32.55
2022-08-10T15:15:27.974Z,32.23
2022-08-10T15:17:58.705Z,32.33
2022-08-10T15:20:28.009Z,32.44
2022-08-10T15:23:30.989Z,32.64
2022-08-10T15:26:11.025Z,31.78
2022-08-10T15:29:22.451Z,32.92
2022-08-10T15:31:59.992Z,32.55
2022-08-10T15:34:46.735Z,31.99
2022-08-10T15:37:39.397Z,32.07
2022-08-10T15:40:23.993Z,30.79
2022-08-10T15:43:05.337Z,31.09
2022-08-10T15:45:55.673Z,31.31
2022-08-10T15:48:26.029Z,30.93
2022-08-10T15:51:06.042Z,31.86
2022-08-10T15:53:50.564Z,31.36
2022-08-10T15:56:43.680Z,30.87
2022-08-10T15:59:16.799Z,31.50
2022-08-10T16:02:13.113Z,31.54
2022-08-10T16:04:53.461Z,31.68
2022-08-10T16:07:50.330Z,31.62
2022-08-10T16:10:25.379Z,31.94
2022-08-10T16:13:00.958Z,30.90
2022-08-10T16:15:30.434Z,31.49
2022-08-10T16:18:14.635Z,31.39
2022-08-10T16:20:54.924Z,31.48
2022-08-10T16:23:35.122Z,30.93
2022-08-10T16:26:14.771Z,31.40
2022-08-10T16:28:49.973Z,31.47
2022-08-10T16:31:19.379Z,30.64
2022-08-10T16:33:54.172Z,30.30
2022-08-10T16:36:28.840Z,30.81
2022-08-10T16:38:57.718Z,30.92
2022-08-10T16:42:03.096Z,31.44
2022-08-10T16:44:18.602Z,31.62
2022-08-10T16:46:47.340Z,31.48
2022-08-10T16:49:16.969Z,31.04
2022-08-10T16:51:49.057Z,30.46
2022-08-10T16:54:26.490Z,30.92
2022-08-10T16:57:03.836Z,31.34
2022-08-10T16:59:36.816Z,30.52
2022-08-10T17:02:05.807Z,31.83
2022-08-10T17:04:33.961Z,31.90
2022-08-10T17:07:07.422Z,31.25
2022-08-10T17:09:37.428Z,31.85
2022-08-10T17:12:11.657Z,31.07
2022-08-10T17:14:41.065Z,31.71
2022-08-10T17:17:16.638Z,31.47
2022-08-10T17:19:45.304Z,31.63
2022-08-10T17:22:23.131Z,31.41
2022-08-10T17:24:59.922Z,31.70
2022-08-10T17:28:05.413Z,32.19
2022-08-10T17:30:30.017Z,31.48
2022-08-10T17:33:06.523Z,30.80
2022-08-10T17:35:36.451Z,29.81
2022-08-10T17:38:07.924Z,29.83
2022-08-10T17:40:45.845Z,30.11
2022-08-10T17:43:58.223Z,29.82
2022-08-10T17:46:07.637Z,29.58
2022-08-10T17:48:36.057Z,29.32
2022-08-10T17:51:09.909Z,29.99
2022-08-10T17:53:43.555Z,30.29
2022-08-10T17:56:12.071Z,30.55
2022-08-10T17:58:59.499Z,30.04
2022-08-10T18:01:41.533Z,30.33
2022-08-10T18:04:19.250Z,30.28
2022-08-10T18:06:53.499Z,30.87
2022-08-10T18:09:41.193Z,31.03
2022-08-10T18:12:18.533Z,30.88
2022-08-10T18:14:49.816Z,30.88
2022-08-10T18:17:26.308Z,31.04
2022-08-10T18:20:01.991Z,31.07
2022-08-10T18:22:30.356Z,31.50
2022-08-10T18:24:59.374Z,31.78
2022-08-10T18:28:01.383Z,33.17
2022-08-10T18:30:16.445Z,33.94
2022-08-10T18:32:50.388Z,34.55
2022-08-10T18:35:19.002Z,35.51
2022-08-10T18:37:51.900Z,35.95
2022-08-10T18:40:19.959Z,35.96
2022-08-10T18:42:51.861Z,36.28
2022-08-10T18:45:26.870Z,36.30
2022-08-10T18:48:09.212Z,36.53
2022-08-10T18:50:43.940Z,37.02
2022-08-10T18:53:18.471Z,37.24
2022-08-10T18:56:08.653Z,37.36
2022-08-10T18:59:13.987Z,37.88
2022-08-10T19:01:49.871Z,38.59
2022-08-10T19:04:47.832Z,38.97
2022-08-10T19:07:23.665Z,39.26
2022-08-10T19:10:48.056Z,39.54
2022-08-10T19:13:39.802Z,39.85
2022-08-10T19:16:30.253Z,39.93
2022-08-10T19:19:05.047Z,39.99
2022-08-10T19:22:14.681Z,40.06
2022-08-10T19:24:58.030Z,40.17
2022-08-10T19:27:53.505Z,40.68
2022-08-10T19:30:35.051Z,40.46
2022-08-10T19:33:33.215Z,40.81
2022-08-10T19:36:44.756Z,41.62
2022-08-10T19:39:27.175Z,41.61
2022-08-10T19:42:17.531Z,42.37
2022-08-10T19:44:52.775Z,42.30
2022-08-10T19:48:01.726Z,43.24
2022-08-10T19:50:37.273Z,43.00
2022-08-10T19:53:03.908Z,43.06
2022-08-10T19:55:41.377Z,43.29
2022-08-10T19:58:19.086Z,43.66
2022-08-10T20:01:02.228Z,43.79
2022-08-10T20:03:38.269Z,44.11
2022-08-10T20:06:19.875Z,44.65
2022-08-10T20:09:02.311Z,44.47
2022-08-10T20:11:45.938Z,44.40
2022-08-10T20:14:22.482Z,44.84
2022-08-10T20:16:53.471Z,45.12
2022-08-10T20:19:52.637Z,45.84
2022-08-10T20:22:30.430Z,45.24
2022-08-10T20:25:17.882Z,45.70
2022-08-10T20:28:01.128Z,45.43
2022-08-10T20:30:35.764Z,46.32
2022-08-10T20:33:10.295Z,45.92
2022-08-10T20:35:53.402Z,45.98
2022-08-10T20:38:28.913Z,46.48
2022-08-10T20:41:12.153Z,46.75
2022-08-10T20:44:06.834Z,47.08
2022-08-10T20:46:43.817Z,46.99
2022-08-10T20:49:38.038Z,47.48
2022-08-10T20:52:05.964Z,46.91
2022-08-10T20:55:04.441Z,47.34
2022-08-10T20:58:01.562Z,47.44
2022-08-10T21:00:46.175Z,47.26
2022-08-10T21:03:31.668Z,47.05
2022-08-10T21:06:07.491Z,47.01
2022-08-10T21:08:40.654Z,46.73
2022-08-10T21:11:15.977Z,46.79
2022-08-10T21:14:01.894Z,46.57
2022-08-10T21:16:34.692Z,46.53
2022-08-10T21:19:29.997Z,46.78
2022-08-10T21:22:08.716Z,46.83
2022-08-10T21:24:45.815Z,47.12
2022-08-10T21:27:37.378Z,47.64
2022-08-10T21:30:17.105Z,47.87
2022-08-10T21:33:17.388Z,48.32
2022-08-10T21:35:53.126Z,48.61
2022-08-10T21:38:41.347Z,49.05
2022-08-10T21:41:58.123Z,49.33
2022-08-10T21:45:07.959Z,48.82
2022-08-10T21:48:17.149Z,49.11
2022-08-10T21:51:14.697Z,49.15
2022-08-10T21:54:25.778Z,49.37
2022-08-10T21:57:26.381Z,49.63
2022-08-10T22:00:20.245Z,49.25
2022-08-10T22:03:09.020Z,49.15
2022-08-10T22:05:57.463Z,49.73
2022-08-10T22:08:49.782Z,49.38
2022-08-10T22:11:38.038Z,49.79
2022-08-10T22:14:25.832Z,49.47
2022-08-10T22:18:03.716Z,49.64
2022-08-10T22:20:32.990Z,49.99
2022-08-10T22:23:40.834Z,50.54
2022-08-10T22:26:56.665Z,50.54
2022-08-10T22:29:54.786Z,50.18
2022-08-10T22:33:08.564Z,50.70
2022-08-10T22:36:06.238Z,50.62
2022-08-10T22:39:06.383Z,51.17
2022-08-10T22:42:16.652Z,51.64
2022-08-10T22:45:04.933Z,51.27
2022-08-10T22:47:51.902Z,51.58
2022-08-10T22:50:24.836Z,51.94
2022-08-10T22:53:03.828Z,52.16
2022-08-10T22:55:58.151Z,52.42
2022-08-10T22:58:40.019Z,51.88
2022-08-10T23:01:14.931Z,53.08
2022-08-10T23:03:52.595Z,52.71
2022-08-10T23:06:26.261Z,52.80
2022-08-10T23:09:00.082Z,53.27
2022-08-10T23:11:42.821Z,53.09
2022-08-10T23:14:15.259Z,53.38
2022-08-10T23:17:07.155Z,53.14
2022-08-10T23:19:39.938Z,53.56
2022-08-10T23:22:12.733Z,53.36
2022-08-10T23:25:29.955Z,53.54
2022-08-10T23:28:00.394Z,53.84
2022-08-10T23:30:37.244Z,53.92
2022-08-10T23:33:05.467Z,54.22
2022-08-10T23:36:29.787Z,54.67
2022-08-10T23:38:34.606Z,54.79
2022-08-10T23:41:03.312Z,55.54
2022-08-10T23:44:00.783Z,55.13
2022-08-10T23:46:26.868Z,54.97
2022-08-10T23:48:56.207Z,55.09
2022-08-10T23:51:55.612Z,55.38
2022-08-10T23:54:22.009Z,55.77
2022-08-10T23:56:54.355Z,55.61
2022-08-10T23:59:23.586Z,55.74
